createdAt,value
2022-10-10T00:01:31.960Z,8.50
2022-10-10T00:05:34.574Z,8.60
2022-10-10T00:09:36.455Z,8.50
2022-10-10T00:13:38.520Z,8.50
2022-10-10T00:17:42.530Z,8.50
2022-10-10T00:21:44.347Z,8.50
2022-10-10T00:25:46.525Z,8.60
2022-10-10T00:29:48.361Z,8.70
2022-10-10T00:33:50.314Z,8.60
2022-10-10T00:37:52.133Z,8.60
2022-10-10T00:41:54.073Z,8.60
2022-10-10T00:45:55.976Z,8.60
2022-10-10T00:49:57.784Z,8.60
2022-10-10T00:54:05.539Z,8.60
2022-10-10T00:58:07.634Z,8.60
2022-10-10T01:02:09.455Z,8.70
2022-10-10T01:06:11.245Z,8.60
2022-10-10T01:10:15.859Z,8.60
2022-10-10T01:14:44.893Z,8.60
2022-10-10T01:19:29.722Z,8.60
2022-10-10T01:24:18.687Z,8.60
2022-10-10T01:28:51.388Z,8.60
2022-10-10T01:33:09.126Z,8.60
2022-10-10T01:37:22.238Z,8.60
2022-10-10T01:41:38.823Z,8.70
2022-10-10T01:45:46.509Z,8.70
2022-10-10T01:49:50.698Z,8.80
2022-10-10T01:54:18.485Z,8.80
2022-10-10T01:58:36.097Z,8.90
2022-10-10T02:02:50.165Z,8.90
2022-10-10T02:07:23.013Z,8.90
2022-10-10T02:11:31.034Z,8.80
2022-10-10T02:15:40.908Z,8.70
2022-10-10T02:20:00.033Z,8.70
2022-10-10T02:24:04.988Z,8.70
2022-10-10T02:28:13.528Z,8.70
2022-10-10T02:32:42.209Z,8.70
2022-10-10T02:36:48.287Z,8.70
2022-10-10T02:40:50.149Z,8.80
2022-10-10T02:44:51.937Z,8.80
2022-10-10T02:48:53.818Z,9.00
2022-10-10T02:52:56.245Z,9.00
2022-10-10T02:56:58.054Z,9.00
2022-10-10T03:00:59.971Z,9.10
2022-10-10T03:05:01.959Z,9.20
2022-10-10T03:09:04.465Z,9.20
2022-10-10T03:13:06.342Z,9.20
2022-10-10T03:17:08.247Z,9.30
2022-10-10T03:21:10.067Z,9.30
2022-10-10T03:25:27.414Z,9.40
2022-10-10T03:29:29.389Z,9.40
2022-10-10T03:33:31.255Z,9.50
2022-10-10T03:37:33.144Z,9.50
2022-10-10T03:41:35.629Z,9.50
2022-10-10T03:45:37.985Z,9.50
2022-10-10T03:49:42.158Z,9.50
2022-10-10T03:53:44.060Z,9.50
2022-10-10T03:57:45.888Z,9.50
2022-10-10T04:01:47.897Z,9.50
2022-10-10T04:05:49.889Z,9.50
2022-10-10T04:09:51.791Z,9.40
2022-10-10T04:13:53.711Z,9.40
2022-10-10T04:17:55.426Z,9.40
2022-10-10T04:21:57.297Z,9.40
2022-10-10T04:25:59.345Z,9.30
2022-10-10T04:30:01.672Z,9.30
2022-10-10T04:34:03.480Z,9.30
2022-10-10T04:38:06.330Z,9.20
2022-10-10T04:42:08.178Z,9.20
2022-10-10T04:46:10.006Z,9.20
2022-10-10T04:50:11.820Z,9.10
2022-10-10T04:54:13.693Z,9.00
2022-10-10T04:58:15.672Z,9.00
2022-10-10T05:02:17.575Z,8.90
2022-10-10T05:06:19.435Z,8.90
2022-10-10T05:10:21.270Z,8.80
2022-10-10T05:14:23.203Z,8.70
2022-10-10T05:18:25.145Z,8.70
2022-10-10T05:22:26.933Z,8.60
2022-10-10T05:26:28.847Z,8.60
2022-10-10T05:30:30.669Z,8.60
2022-10-10T05:34:36.060Z,8.50
2022-10-10T05:38:38.688Z,8.50
2022-10-10T05:42:59.953Z,8.60
2022-10-10T05:47:01.933Z,8.60
2022-10-10T05:51:03.871Z,8.70
2022-10-10T05:55:06.180Z,8.80
2022-10-10T05:59:08.028Z,8.90
2022-10-10T06:03:14.020Z,9.00
2022-10-10T06:07:16.354Z,9.10
2022-10-10T06:11:19.384Z,9.20
2022-10-10T06:15:21.344Z,9.50
2022-10-10T06:19:23.340Z,9.80
2022-10-10T06:23:25.214Z,10.20
2022-10-10T06:27:43.137Z,10.70
2022-10-10T06:31:47.603Z,11.10
2022-10-10T06:35:49.581Z,11.40
2022-10-10T06:39:51.492Z,11.70
2022-10-10T06:43:53.439Z,12.00
2022-10-10T06:47:55.486Z,12.10
2022-10-10T06:51:57.520Z,12.20
2022-10-10T06:55:59.781Z,12.30
2022-10-10T07:00:01.678Z,12.40
2022-10-10T07:04:03.560Z,12.50
2022-10-10T07:08:05.428Z,12.50
2022-10-10T07:12:07.342Z,12.60
2022-10-10T07:16:10.638Z,12.50
2022-10-10T07:20:12.566Z,12.60
2022-10-10T07:24:14.446Z,12.70
2022-10-10T07:28:19.291Z,12.90
2022-10-10T07:32:21.657Z,12.90
2022-10-10T07:36:33.870Z,13.00
2022-10-10T07:40:40.496Z,13.20
2022-10-10T07:44:42.361Z,13.40
2022-10-10T07:48:44.361Z,13.50
2022-10-10T07:52:46.283Z,13.60
2022-10-10T07:56:48.205Z,13.70
2022-10-10T08:00:50.068Z,13.90
2022-10-10T08:04:54.857Z,14.00
2022-10-10T08:08:56.873Z,14.10
2022-10-10T08:12:58.741Z,14.40
2022-10-10T08:17:04.274Z,14.70
2022-10-10T08:21:08.743Z,14.80
2022-10-10T08:25:21.376Z,15.00
2022-10-10T08:29:23.417Z,15.10
2022-10-10T08:33:28.654Z,15.30
2022-10-10T08:37:36.490Z,15.40
2022-10-10T08:42:07.005Z,15.60
2022-10-10T08:46:15.829Z,15.70
2022-10-10T08:50:24.384Z,15.70
2022-10-10T08:54:44.629Z,15.60
2022-10-10T08:59:09.854Z,15.60
2022-10-10T09:03:43.549Z,15.70
2022-10-10T09:08:15.536Z,16.00
2022-10-10T09:12:48.083Z,16.00
2022-10-10T09:17:19.339Z,16.20
2022-10-10T09:21:29.870Z,16.30
2022-10-10T09:25:45.492Z,16.40
2022-10-10T09:29:59.003Z,16.40
2022-10-10T09:34:17.609Z,16.70
2022-10-10T09:38:45.169Z,17.10
2022-10-10T09:42:59.223Z,17.60
2022-10-10T09:47:10.040Z,18.00
2022-10-10T09:51:32.014Z,17.90
2022-10-10T09:55:46.938Z,18.00
2022-10-10T10:04:49.037Z,18.50
2022-10-10T10:09:05.563Z,18.60
2022-10-10T10:13:24.119Z,18.50
2022-10-10T10:17:32.061Z,18.70
2022-10-10T10:21:52.400Z,18.80
2022-10-10T10:26:21.269Z,18.60
2022-10-10T10:30:39.409Z,18.80
2022-10-10T10:35:40.302Z,18.80
2022-10-10T10:40:22.783Z,18.70
2022-10-10T10:44:45.971Z,19.00
2022-10-10T10:49:06.058Z,18.80
2022-10-10T10:53:58.896Z,18.50
2022-10-10T11:03:38.463Z,18.60
2022-10-10T11:07:57.294Z,18.40
2022-10-10T11:12:52.069Z,18.20
2022-10-10T11:17:12.162Z,18.00
2022-10-10T11:21:25.011Z,18.00
2022-10-10T11:26:01.461Z,18.10
2022-10-10T11:30:14.302Z,18.00
2022-10-10T11:34:23.139Z,18.00
2022-10-10T11:38:46.310Z,17.80
2022-10-10T11:42:53.715Z,17.80
2022-10-10T11:47:32.196Z,18.00
2022-10-10T11:52:09.474Z,18.00
2022-10-10T11:56:30.558Z,18.00
2022-10-10T12:00:46.184Z,18.00
2022-10-10T12:04:48.067Z,18.20
2022-10-10T12:08:58.812Z,18.30
2022-10-10T12:13:20.094Z,18.50
2022-10-10T12:17:31.845Z,18.60
2022-10-10T12:22:06.756Z,18.60
2022-10-10T12:26:20.540Z,18.80
2022-10-10T12:30:25.051Z,19.00
2022-10-10T12:35:38.616Z,18.80
2022-10-10T12:40:06.580Z,19.10
2022-10-10T12:44:24.560Z,19.60
2022-10-10T12:48:26.531Z,19.50
2022-10-10T12:52:56.929Z,19.30
2022-10-10T12:57:09.837Z,19.20
2022-10-10T13:01:30.193Z,19.20
2022-10-10T13:05:35.795Z,19.30
2022-10-10T13:09:38.882Z,19.30
2022-10-10T13:13:49.678Z,19.20
2022-10-10T13:17:51.507Z,19.20
2022-10-10T13:21:53.695Z,19.20
2022-10-10T13:25:55.633Z,19.10
2022-10-10T13:29:58.091Z,19.00
2022-10-10T13:34:05.132Z,19.00
2022-10-10T13:38:10.377Z,19.10
2022-10-10T13:42:30.381Z,18.90
2022-10-10T13:46:33.486Z,18.70
2022-10-10T13:50:44.551Z,18.50
2022-10-10T13:54:49.458Z,18.50
2022-10-10T13:59:06.202Z,18.60
2022-10-10T14:03:18.596Z,18.70
2022-10-10T14:07:28.002Z,18.90
2022-10-10T14:11:30.480Z,19.00
2022-10-10T14:15:41.466Z,19.00
2022-10-10T14:19:44.912Z,19.00
2022-10-10T14:23:47.672Z,19.00
2022-10-10T14:27:49.584Z,19.00
2022-10-10T14:31:51.580Z,18.90
2022-10-10T14:35:54.445Z,18.80
2022-10-10T14:39:56.720Z,18.80
2022-10-10T14:43:58.831Z,18.80
2022-10-10T14:48:01.061Z,18.70
2022-10-10T14:52:03.356Z,18.60
2022-10-10T14:56:09.785Z,18.60
2022-10-10T15:00:17.518Z,18.50
2022-10-10T15:04:19.525Z,18.40
2022-10-10T15:08:42.583Z,18.30
2022-10-10T15:17:29.445Z,17.90
2022-10-10T15:21:31.650Z,17.90
2022-10-10T15:25:34.370Z,18.00
2022-10-10T15:29:44.497Z,17.90
2022-10-10T15:33:57.699Z,17.80
2022-10-10T15:37:59.950Z,17.80
2022-10-10T15:42:13.316Z,17.70
2022-10-10T15:46:19.523Z,17.50
2022-10-10T15:50:26.988Z,17.40
2022-10-10T15:54:34.419Z,17.30
2022-10-10T15:59:00.647Z,17.20
2022-10-10T16:03:36.861Z,17.10
2022-10-10T16:12:52.702Z,16.80
2022-10-10T16:21:52.723Z,16.60
2022-10-10T16:31:51.272Z,16.40
2022-10-10T16:35:57.310Z,16.30
2022-10-10T16:40:22.967Z,16.10
2022-10-10T16:44:43.235Z,16.00
2022-10-10T16:49:33.251Z,16.00
2022-10-10T16:53:35.601Z,15.80
2022-10-10T16:57:43.163Z,15.70
2022-10-10T17:02:06.748Z,15.60
2022-10-10T17:06:25.347Z,15.50
2022-10-10T17:10:34.708Z,15.40
2022-10-10T17:14:36.717Z,15.20
2022-10-10T17:18:41.433Z,15.00
2022-10-10T17:28:48.684Z,14.80
2022-10-10T17:32:53.866Z,14.60
2022-10-10T17:37:00.792Z,14.60
2022-10-10T17:41:32.343Z,14.50
2022-10-10T17:45:48.568Z,14.50
2022-10-10T17:49:56.771Z,14.40
2022-10-10T17:54:05.399Z,14.40
2022-10-10T17:58:10.351Z,14.30
2022-10-10T18:02:29.350Z,14.30
2022-10-10T18:06:47.423Z,14.20
2022-10-10T18:11:13.358Z,14.20
2022-10-10T18:15:18.596Z,14.10
2022-10-10T18:19:29.782Z,14.00
2022-10-10T18:23:44.261Z,14.00
2022-10-10T18:28:22.374Z,14.00
2022-10-10T18:32:30.824Z,13.90
2022-10-10T18:36:36.015Z,13.80
2022-10-10T18:40:49.046Z,13.80
2022-10-10T18:45:07.658Z,13.60
2022-10-10T18:49:34.740Z,13.60
2022-10-10T18:53:51.184Z,13.60
2022-10-10T18:58:04.380Z,13.50
2022-10-10T19:02:09.930Z,13.50
2022-10-10T19:06:25.876Z,13.40
2022-10-10T19:10:34.558Z,13.40
2022-10-10T19:15:11.676Z,13.30
2022-10-10T19:19:23.374Z,13.20
2022-10-10T19:23:36.317Z,13.20
2022-10-10T19:27:38.673Z,13.20
2022-10-10T19:31:57.555Z,13.10
2022-10-10T19:36:08.581Z,13.00
2022-10-10T19:40:13.706Z,13.00
2022-10-10T19:44:18.175Z,13.00
2022-10-10T19:48:23.503Z,12.90
2022-10-10T19:52:25.480Z,12.90
2022-10-10T19:56:33.631Z,12.80
2022-10-10T20:00:58.441Z,12.80
2022-10-10T20:05:04.511Z,12.80
2022-10-10T20:09:11.933Z,12.70
2022-10-10T20:13:20.313Z,12.70
2022-10-10T20:17:24.649Z,12.70
2022-10-10T20:21:36.688Z,12.50
2022-10-10T20:25:43.646Z,12.50
2022-10-10T20:30:09.743Z,12.50
2022-10-10T20:34:14.013Z,12.50
2022-10-10T20:38:18.299Z,12.40
2022-10-10T20:42:23.775Z,12.50
2022-10-10T20:46:34.634Z,12.40
2022-10-10T20:51:20.005Z,12.30
2022-10-10T20:55:24.447Z,12.20
2022-10-10T20:59:26.528Z,12.20
2022-10-10T21:03:31.759Z,12.20
2022-10-10T21:07:38.927Z,12.10
2022-10-10T21:11:41.555Z,12.10
2022-10-10T21:15:45.788Z,12.00
2022-10-10T21:19:53.522Z,11.90
2022-10-10T21:23:56.754Z,11.90
2022-10-10T21:27:58.748Z,11.90
2022-10-10T21:32:00.897Z,11.70
2022-10-10T21:36:03.305Z,11.60
2022-10-10T21:40:06.375Z,11.60
2022-10-10T21:44:09.786Z,11.60
2022-10-10T21:48:21.238Z,11.60
2022-10-10T21:52:23.251Z,11.60
2022-10-10T21:56:25.822Z,11.60
2022-10-10T22:00:27.815Z,11.50
2022-10-10T22:04:40.747Z,11.50
2022-10-10T22:13:22.518Z,11.50
2022-10-10T22:17:27.715Z,11.60
2022-10-10T22:21:32.086Z,11.60
2022-10-10T22:25:34.134Z,11.60
2022-10-10T22:29:36.047Z,11.60
2022-10-10T22:33:43.940Z,11.50
2022-10-10T22:37:45.875Z,11.50
2022-10-10T22:41:47.709Z,11.50
2022-10-10T22:45:50.171Z,11.50
2022-10-10T22:49:52.168Z,11.50
2022-10-10T22:53:54.308Z,11.50
2022-10-10T22:57:56.219Z,11.40
2022-10-10T23:01:58.124Z,11.50
2022-10-10T23:06:02.628Z,11.60
2022-10-10T23:10:05.330Z,11.80
2022-10-10T23:14:07.112Z,12.00
2022-10-10T23:18:22.033Z,12.10
2022-10-10T23:22:23.886Z,12.10
2022-10-10T23:26:25.757Z,12.30
2022-10-10T23:30:33.543Z,12.30
2022-10-10T23:34:35.617Z,12.40
2022-10-10T23:39:10.035Z,12.50
2022-10-10T23:43:12.397Z,12.50
2022-10-10T23:47:16.477Z,12.60
2022-10-10T23:51:18.429Z,12.60
2022-10-10T23:55:20.281Z,12.70
2022-10-10T23:59:38.463Z,12.70
